sensor_id;sensor_type;location;lat;lon;timestamp;P1;durP1;ratioP1;P2;durP2;ratioP2
28958;SDS011;16066;0.000;0.000;2022-08-19T00:02:03;8.70;;;7.80;;
28958;SDS011;16066;0.000;0.000;2022-08-19T00:04:30;9.80;;;8.10;;
28958;SDS011;16066;0.000;0.000;2022-08-19T00:06:59;10.00;;;8.97;;
28958;SDS011;16066;0.000;0.000;2022-08-19T00:09:25;8.63;;;7.73;;
28958;SDS011;16066;0.000;0.000;2022-08-19T00:11:52;12.33;;;9.20;;
28958;SDS011;16066;0.000;0.000;2022-08-19T00:14:20;9.33;;;8.43;;
28958;SDS011;16066;0.000;0.000;2022-08-19T00:16:47;10.40;;;9.37;;
28958;SDS011;16066;0.000;0.000;2022-08-19T00:19:14;11.27;;;8.70;;
28958;SDS011;16066;0.000;0.000;2022-08-19T00:21:40;10.87;;;9.60;;
28958;SDS011;16066;0.000;0.000;2022-08-19T00:24:10;10.87;;;9.30;;
28958;SDS011;16066;0.000;0.000;2022-08-19T00:26:36;10.97;;;9.70;;
28958;SDS011;16066;0.000;0.000;2022-08-19T00:29:05;11.60;;;9.53;;
28958;SDS011;16066;0.000;0.000;2022-08-19T00:31:31;11.77;;;9.67;;
28958;SDS011;16066;0.000;0.000;2022-08-19T00:33:58;10.00;;;9.00;;
28958;SDS011;16066;0.000;0.000;2022-08-19T00:36:24;11.07;;;9.87;;
28958;SDS011;16066;0.000;0.000;2022-08-19T00:38:49;10.70;;;9.60;;
28958;SDS011;16066;0.000;0.000;2022-08-19T00:41:17;12.37;;;9.77;;
28958;SDS011;16066;0.000;0.000;2022-08-19T00:43:56;11.47;;;9.70;;
28958;SDS011;16066;0.000;0.000;2022-08-19T00:46:31;11.07;;;9.77;;
28958;SDS011;16066;0.000;0.000;2022-08-19T00:48:58;12.67;;;10.47;;
28958;SDS011;16066;0.000;0.000;2022-08-19T00:51:25;11.33;;;9.93;;
28958;SDS011;16066;0.000;0.000;2022-08-19T00:53:54;11.03;;;9.90;;
28958;SDS011;16066;0.000;0.000;2022-08-19T00:56:21;11.47;;;9.70;;
28958;SDS011;16066;0.000;0.000;2022-08-19T00:58:47;9.80;;;8.80;;
28958;SDS011;16066;0.000;0.000;2022-08-19T01:01:12;13.00;;;10.50;;
28958;SDS011;16066;0.000;0.000;2022-08-19T01:03:39;12.87;;;10.03;;
28958;SDS011;16066;0.000;0.000;2022-08-19T01:06:04;10.97;;;9.87;;
28958;SDS011;16066;0.000;0.000;2022-08-19T01:08:30;15.13;;;10.53;;
28958;SDS011;16066;0.000;0.000;2022-08-19T01:10:56;13.13;;;9.70;;
28958;SDS011;16066;0.000;0.000;2022-08-19T01:13:25;11.70;;;10.20;;
28958;SDS011;16066;0.000;0.000;2022-08-19T01:15:55;14.23;;;11.97;;
28958;SDS011;16066;0.000;0.000;2022-08-19T01:18:24;11.00;;;9.90;;
28958;SDS011;16066;0.000;0.000;2022-08-19T01:20:53;11.00;;;9.80;;
28958;SDS011;16066;0.000;0.000;2022-08-19T01:23:20;11.23;;;10.03;;
28958;SDS011;16066;0.000;0.000;2022-08-19T01:28:15;10.90;;;9.50;;
28958;SDS011;16066;0.000;0.000;2022-08-19T01:30:45;12.40;;;11.17;;
28958;SDS011;16066;0.000;0.000;2022-08-19T01:33:11;12.03;;;10.80;;
28958;SDS011;16066;0.000;0.000;2022-08-19T01:35:37;10.23;;;9.20;;
28958;SDS011;16066;0.000;0.000;2022-08-19T01:38:05;12.73;;;10.67;;
28958;SDS011;16066;0.000;0.000;2022-08-19T01:40:33;10.43;;;9.43;;
28958;SDS011;16066;0.000;0.000;2022-08-19T01:43:01;11.90;;;10.23;;
28958;SDS011;16066;0.000;0.000;2022-08-19T01:45:29;11.73;;;10.27;;
28958;SDS011;16066;0.000;0.000;2022-08-19T01:47:57;10.90;;;9.70;;
28958;SDS011;16066;0.000;0.000;2022-08-19T01:50:24;11.60;;;10.50;;
28958;SDS011;16066;0.000;0.000;2022-08-19T01:52:50;13.80;;;11.30;;
28958;SDS011;16066;0.000;0.000;2022-08-19T01:55:18;11.60;;;10.50;;
28958;SDS011;16066;0.000;0.000;2022-08-19T01:57:46;11.63;;;10.40;;
28958;SDS011;16066;0.000;0.000;2022-08-19T02:00:16;17.07;;;10.37;;
28958;SDS011;16066;0.000;0.000;2022-08-19T02:02:44;15.20;;;10.30;;
28958;SDS011;16066;0.000;0.000;2022-08-19T02:05:10;10.97;;;9.80;;
28958;SDS011;16066;0.000;0.000;2022-08-19T02:07:37;11.43;;;9.60;;
28958;SDS011;16066;0.000;0.000;2022-08-19T02:10:06;11.43;;;10.00;;
28958;SDS011;16066;0.000;0.000;2022-08-19T02:12:35;12.27;;;11.03;;
28958;SDS011;16066;0.000;0.000;2022-08-19T02:15:01;11.50;;;10.37;;
28958;SDS011;16066;0.000;0.000;2022-08-19T02:17:28;12.47;;;9.80;;
28958;SDS011;16066;0.000;0.000;2022-08-19T02:19:54;10.63;;;8.97;;
28958;SDS011;16066;0.000;0.000;2022-08-19T02:22:21;13.20;;;10.40;;
28958;SDS011;16066;0.000;0.000;2022-08-19T02:24:47;13.60;;;10.73;;
28958;SDS011;16066;0.000;0.000;2022-08-19T02:27:13;12.77;;;11.30;;
28958;SDS011;16066;0.000;0.000;2022-08-19T02:29:39;13.47;;;10.40;;
28958;SDS011;16066;0.000;0.000;2022-08-19T02:32:06;18.20;;;11.17;;
28958;SDS011;16066;0.000;0.000;2022-08-19T02:34:32;14.47;;;11.70;;
28958;SDS011;16066;0.000;0.000;2022-08-19T02:36:58;12.60;;;11.30;;
28958;SDS011;16066;0.000;0.000;2022-08-19T02:39:23;13.53;;;10.70;;
28958;SDS011;16066;0.000;0.000;2022-08-19T02:41:49;11.90;;;10.70;;
28958;SDS011;16066;0.000;0.000;2022-08-19T02:44:15;13.37;;;11.30;;
28958;SDS011;16066;0.000;0.000;2022-08-19T02:46:41;14.20;;;10.80;;
28958;SDS011;16066;0.000;0.000;2022-08-19T02:49:09;11.27;;;10.17;;
28958;SDS011;16066;0.000;0.000;2022-08-19T02:51:36;14.53;;;10.03;;
28958;SDS011;16066;0.000;0.000;2022-08-19T02:54:05;11.57;;;10.23;;
28958;SDS011;16066;0.000;0.000;2022-08-19T02:56:34;14.80;;;11.20;;
28958;SDS011;16066;0.000;0.000;2022-08-19T02:59:00;13.37;;;10.77;;
28958;SDS011;16066;0.000;0.000;2022-08-19T03:01:27;13.30;;;10.50;;
28958;SDS011;16066;0.000;0.000;2022-08-19T03:03:57;11.27;;;10.00;;
28958;SDS011;16066;0.000;0.000;2022-08-19T03:06:28;11.93;;;10.80;;
28958;SDS011;16066;0.000;0.000;2022-08-19T03:08:54;13.57;;;11.43;;
28958;SDS011;16066;0.000;0.000;2022-08-19T03:11:21;14.00;;;10.60;;
28958;SDS011;16066;0.000;0.000;2022-08-19T03:13:49;12.50;;;9.67;;
28958;SDS011;16066;0.000;0.000;2022-08-19T03:16:16;12.70;;;10.17;;
28958;SDS011;16066;0.000;0.000;2022-08-19T03:18:42;14.23;;;11.00;;
28958;SDS011;16066;0.000;0.000;2022-08-19T03:21:08;12.50;;;11.20;;
28958;SDS011;16066;0.000;0.000;2022-08-19T03:23:34;13.43;;;10.63;;
28958;SDS011;16066;0.000;0.000;2022-08-19T03:26:03;12.67;;;10.40;;
28958;SDS011;16066;0.000;0.000;2022-08-19T03:28:30;10.93;;;9.93;;
28958;SDS011;16066;0.000;0.000;2022-08-19T03:31:04;12.27;;;10.90;;
28958;SDS011;16066;0.000;0.000;2022-08-19T03:33:37;11.80;;;10.60;;
28958;SDS011;16066;0.000;0.000;2022-08-19T03:38:33;11.90;;;10.70;;
28958;SDS011;16066;0.000;0.000;2022-08-19T03:41:08;12.43;;;11.13;;
28958;SDS011;16066;0.000;0.000;2022-08-19T03:43:39;16.97;;;12.00;;
28958;SDS011;16066;0.000;0.000;2022-08-19T03:46:13;14.17;;;11.50;;
28958;SDS011;16066;0.000;0.000;2022-08-19T03:48:41;11.67;;;10.47;;
28958;SDS011;16066;0.000;0.000;2022-08-19T03:51:15;13.17;;;11.77;;
28958;SDS011;16066;0.000;0.000;2022-08-19T03:53:45;12.93;;;10.80;;
28958;SDS011;16066;0.000;0.000;2022-08-19T03:56:12;12.13;;;10.23;;
28958;SDS011;16066;0.000;0.000;2022-08-19T03:58:39;11.57;;;10.40;;
28958;SDS011;16066;0.000;0.000;2022-08-19T04:01:09;10.97;;;9.70;;
28958;SDS011;16066;0.000;0.000;2022-08-19T04:03:37;14.80;;;12.30;;
28958;SDS011;16066;0.000;0.000;2022-08-19T04:06:13;12.60;;;11.20;;
28958;SDS011;16066;0.000;0.000;2022-08-19T04:08:52;11.47;;;10.37;;
28958;SDS011;16066;0.000;0.000;2022-08-19T04:11:21;11.90;;;10.77;;
28958;SDS011;16066;0.000;0.000;2022-08-19T04:13:50;14.10;;;11.60;;
28958;SDS011;16066;0.000;0.000;2022-08-19T04:16:20;14.40;;;12.90;;
28958;SDS011;16066;0.000;0.000;2022-08-19T04:18:48;13.13;;;10.80;;
28958;SDS011;16066;0.000;0.000;2022-08-19T04:21:16;15.20;;;12.37;;
28958;SDS011;16066;0.000;0.000;2022-08-19T04:23:43;15.97;;;11.07;;
28958;SDS011;16066;0.000;0.000;2022-08-19T04:26:17;12.17;;;10.67;;
28958;SDS011;16066;0.000;0.000;2022-08-19T04:28:46;12.17;;;10.97;;
28958;SDS011;16066;0.000;0.000;2022-08-19T04:31:17;12.87;;;10.80;;
28958;SDS011;16066;0.000;0.000;2022-08-19T04:33:45;13.87;;;11.97;;
28958;SDS011;16066;0.000;0.000;2022-08-19T04:36:19;12.23;;;10.93;;
28958;SDS011;16066;0.000;0.000;2022-08-19T04:38:47;12.70;;;11.40;;
28958;SDS011;16066;0.000;0.000;2022-08-19T04:41:15;12.63;;;11.00;;
28958;SDS011;16066;0.000;0.000;2022-08-19T04:44:00;12.47;;;10.10;;
28958;SDS011;16066;0.000;0.000;2022-08-19T04:46:27;12.30;;;11.00;;
28958;SDS011;16066;0.000;0.000;2022-08-19T04:48:56;11.97;;;10.60;;
28958;SDS011;16066;0.000;0.000;2022-08-19T04:51:22;17.17;;;11.77;;
28958;SDS011;16066;0.000;0.000;2022-08-19T04:53:48;12.33;;;10.80;;
28958;SDS011;16066;0.000;0.000;2022-08-19T04:56:15;12.90;;;11.60;;
28958;SDS011;16066;0.000;0.000;2022-08-19T04:58:43;12.27;;;11.03;;
28958;SDS011;16066;0.000;0.000;2022-08-19T05:01:14;12.00;;;10.77;;
28958;SDS011;16066;0.000;0.000;2022-08-19T05:03:47;12.93;;;10.63;;
28958;SDS011;16066;0.000;0.000;2022-08-19T05:06:14;15.83;;;11.33;;
28958;SDS011;16066;0.000;0.000;2022-08-19T05:08:43;12.17;;;10.93;;
28958;SDS011;16066;0.000;0.000;2022-08-19T05:11:11;12.43;;;11.13;;
28958;SDS011;16066;0.000;0.000;2022-08-19T05:13:40;12.57;;;11.27;;
28958;SDS011;16066;0.000;0.000;2022-08-19T05:16:07;15.10;;;10.23;;
28958;SDS011;16066;0.000;0.000;2022-08-19T05:18:34;16.30;;;10.63;;
28958;SDS011;16066;0.000;0.000;2022-08-19T05:21:19;13.40;;;11.30;;
28958;SDS011;16066;0.000;0.000;2022-08-19T05:24:04;14.60;;;10.67;;
28958;SDS011;16066;0.000;0.000;2022-08-19T05:26:37;10.93;;;9.53;;
28958;SDS011;16066;0.000;0.000;2022-08-19T05:29:05;14.63;;;11.60;;
28958;SDS011;16066;0.000;0.000;2022-08-19T05:31:32;11.50;;;10.30;;
28958;SDS011;16066;0.000;0.000;2022-08-19T05:33:58;13.47;;;10.43;;
28958;SDS011;16066;0.000;0.000;2022-08-19T05:36:25;12.23;;;10.70;;
28958;SDS011;16066;0.000;0.000;2022-08-19T05:38:52;11.93;;;10.70;;
28958;SDS011;16066;0.000;0.000;2022-08-19T05:41:18;14.33;;;10.80;;
28958;SDS011;16066;0.000;0.000;2022-08-19T05:43:45;17.40;;;11.30;;
28958;SDS011;16066;0.000;0.000;2022-08-19T05:46:18;13.37;;;10.40;;
28958;SDS011;16066;0.000;0.000;2022-08-19T05:48:44;19.27;;;11.57;;
28958;SDS011;16066;0.000;0.000;2022-08-19T05:51:14;13.43;;;10.90;;
28958;SDS011;16066;0.000;0.000;2022-08-19T05:53:41;11.67;;;10.47;;
28958;SDS011;16066;0.000;0.000;2022-08-19T05:56:14;12.20;;;10.47;;
28958;SDS011;16066;0.000;0.000;2022-08-19T05:58:42;17.20;;;10.90;;
28958;SDS011;16066;0.000;0.000;2022-08-19T06:01:10;11.30;;;10.10;;
28958;SDS011;16066;0.000;0.000;2022-08-19T06:03:38;11.63;;;9.83;;
28958;SDS011;16066;0.000;0.000;2022-08-19T06:06:05;16.83;;;11.23;;
28958;SDS011;16066;0.000;0.000;2022-08-19T06:08:33;13.10;;;10.37;;
28958;SDS011;16066;0.000;0.000;2022-08-19T06:11:20;22.50;;;11.23;;
28958;SDS011;16066;0.000;0.000;2022-08-19T06:14:10;15.17;;;12.17;;
28958;SDS011;16066;0.000;0.000;2022-08-19T06:16:44;13.30;;;11.33;;
28958;SDS011;16066;0.000;0.000;2022-08-19T06:19:14;18.07;;;13.80;;
28958;SDS011;16066;0.000;0.000;2022-08-19T06:21:45;14.83;;;11.87;;
28958;SDS011;16066;0.000;0.000;2022-08-19T06:24:13;11.90;;;10.70;;
28958;SDS011;16066;0.000;0.000;2022-08-19T06:26:42;14.23;;;12.73;;
28958;SDS011;16066;0.000;0.000;2022-08-19T06:29:11;21.13;;;15.60;;
28958;SDS011;16066;0.000;0.000;2022-08-19T06:31:41;17.93;;;13.93;;
28958;SDS011;16066;0.000;0.000;2022-08-19T06:34:09;18.20;;;14.73;;
28958;SDS011;16066;0.000;0.000;2022-08-19T06:36:36;22.40;;;14.03;;
28958;SDS011;16066;0.000;0.000;2022-08-19T06:39:14;15.40;;;12.30;;
28958;SDS011;16066;0.000;0.000;2022-08-19T06:41:43;17.70;;;15.90;;
28958;SDS011;16066;0.000;0.000;2022-08-19T06:44:10;20.77;;;14.50;;
28958;SDS011;16066;0.000;0.000;2022-08-19T06:46:37;15.10;;;13.07;;
28958;SDS011;16066;0.000;0.000;2022-08-19T06:49:04;23.10;;;15.13;;
28958;SDS011;16066;0.000;0.000;2022-08-19T06:51:30;20.00;;;16.23;;
28958;SDS011;16066;0.000;0.000;2022-08-19T06:53:57;17.93;;;15.07;;
28958;SDS011;16066;0.000;0.000;2022-08-19T06:56:24;19.23;;;15.50;;
28958;SDS011;16066;0.000;0.000;2022-08-19T06:58:59;24.23;;;16.83;;
28958;SDS011;16066;0.000;0.000;2022-08-19T07:01:26;15.63;;;13.93;;
28958;SDS011;16066;0.000;0.000;2022-08-19T07:03:52;21.70;;;15.50;;
28958;SDS011;16066;0.000;0.000;2022-08-19T07:06:18;26.27;;;16.80;;
28958;SDS011;16066;0.000;0.000;2022-08-19T07:08:45;25.97;;;17.10;;
28958;SDS011;16066;0.000;0.000;2022-08-19T07:11:13;22.90;;;17.30;;
28958;SDS011;16066;0.000;0.000;2022-08-19T07:13:43;20.67;;;17.20;;
28958;SDS011;16066;0.000;0.000;2022-08-19T07:16:15;24.10;;;18.33;;
28958;SDS011;16066;0.000;0.000;2022-08-19T07:18:42;25.47;;;17.67;;
28958;SDS011;16066;0.000;0.000;2022-08-19T07:21:19;22.57;;;17.77;;
28958;SDS011;16066;0.000;0.000;2022-08-19T07:23:48;21.80;;;17.50;;
28958;SDS011;16066;0.000;0.000;2022-08-19T07:26:17;22.87;;;15.60;;
28958;SDS011;16066;0.000;0.000;2022-08-19T07:28:46;23.77;;;17.63;;
28958;SDS011;16066;0.000;0.000;2022-08-19T07:31:15;24.40;;;18.00;;
28958;SDS011;16066;0.000;0.000;2022-08-19T07:33:44;20.63;;;15.53;;
28958;SDS011;16066;0.000;0.000;2022-08-19T07:36:12;22.40;;;15.97;;
28958;SDS011;16066;0.000;0.000;2022-08-19T07:38:40;22.67;;;15.30;;
28958;SDS011;16066;0.000;0.000;2022-08-19T07:41:12;22.97;;;16.60;;
28958;SDS011;16066;0.000;0.000;2022-08-19T07:43:40;37.00;;;19.83;;
28958;SDS011;16066;0.000;0.000;2022-08-19T07:46:08;18.20;;;15.30;;
28958;SDS011;16066;0.000;0.000;2022-08-19T07:48:34;23.23;;;16.60;;
28958;SDS011;16066;0.000;0.000;2022-08-19T07:51:01;32.70;;;20.30;;
28958;SDS011;16066;0.000;0.000;2022-08-19T07:53:29;22.17;;;17.67;;
28958;SDS011;16066;0.000;0.000;2022-08-19T07:55:57;30.67;;;21.40;;
28958;SDS011;16066;0.000;0.000;2022-08-19T07:58:29;24.67;;;18.77;;
28958;SDS011;16066;0.000;0.000;2022-08-19T08:00:57;25.73;;;21.63;;
28958;SDS011;16066;0.000;0.000;2022-08-19T08:03:23;27.90;;;21.07;;
28958;SDS011;16066;0.000;0.000;2022-08-19T08:06:10;36.60;;;22.10;;
28958;SDS011;16066;0.000;0.000;2022-08-19T08:08:55;28.97;;;22.60;;
28958;SDS011;16066;0.000;0.000;2022-08-19T08:11:40;28.00;;;22.30;;
28958;SDS011;16066;0.000;0.000;2022-08-19T08:14:14;30.33;;;22.37;;
28958;SDS011;16066;0.000;0.000;2022-08-19T08:16:41;32.17;;;25.20;;
28958;SDS011;16066;0.000;0.000;2022-08-19T08:19:09;29.40;;;22.60;;
28958;SDS011;16066;0.000;0.000;2022-08-19T08:21:34;33.60;;;21.80;;
28958;SDS011;16066;0.000;0.000;2022-08-19T08:24:01;37.43;;;26.07;;
28958;SDS011;16066;0.000;0.000;2022-08-19T08:26:27;33.73;;;24.13;;
28958;SDS011;16066;0.000;0.000;2022-08-19T08:28:53;34.90;;;24.70;;
28958;SDS011;16066;0.000;0.000;2022-08-19T08:31:19;34.57;;;25.53;;
28958;SDS011;16066;0.000;0.000;2022-08-19T08:33:45;36.83;;;28.57;;
28958;SDS011;16066;0.000;0.000;2022-08-19T08:36:12;33.70;;;27.00;;
28958;SDS011;16066;0.000;0.000;2022-08-19T08:38:40;35.47;;;28.80;;
28958;SDS011;16066;0.000;0.000;2022-08-19T08:43:47;30.23;;;22.70;;
28958;SDS011;16066;0.000;0.000;2022-08-19T08:46:21;32.80;;;25.87;;
28958;SDS011;16066;0.000;0.000;2022-08-19T08:48:53;31.13;;;24.37;;
28958;SDS011;16066;0.000;0.000;2022-08-19T08:51:27;31.40;;;24.17;;
28958;SDS011;16066;0.000;0.000;2022-08-19T08:53:58;26.47;;;22.10;;
28958;SDS011;16066;0.000;0.000;2022-08-19T08:56:25;27.57;;;22.10;;
28958;SDS011;16066;0.000;0.000;2022-08-19T08:58:59;27.17;;;21.60;;
28958;SDS011;16066;0.000;0.000;2022-08-19T09:01:33;30.40;;;24.10;;
28958;SDS011;16066;0.000;0.000;2022-08-19T09:04:02;25.47;;;18.73;;
28958;SDS011;16066;0.000;0.000;2022-08-19T09:06:38;32.33;;;20.00;;
28958;SDS011;16066;0.000;0.000;2022-08-19T09:09:34;24.73;;;18.80;;
28958;SDS011;16066;0.000;0.000;2022-08-19T09:17:28;24.83;;;19.13;;
28958;SDS011;16066;0.000;0.000;2022-08-19T09:22:26;27.37;;;20.97;;
28958;SDS011;16066;0.000;0.000;2022-08-19T09:24:53;21.60;;;17.60;;
28958;SDS011;16066;0.000;0.000;2022-08-19T09:27:20;26.87;;;19.10;;
28958;SDS011;16066;0.000;0.000;2022-08-19T09:29:48;24.73;;;17.43;;
28958;SDS011;16066;0.000;0.000;2022-08-19T09:32:16;22.00;;;18.90;;
28958;SDS011;16066;0.000;0.000;2022-08-19T09:34:43;26.27;;;17.23;;
28958;SDS011;16066;0.000;0.000;2022-08-19T09:37:10;21.87;;;17.50;;
28958;SDS011;16066;0.000;0.000;2022-08-19T09:39:37;31.83;;;18.23;;
28958;SDS011;16066;0.000;0.000;2022-08-19T09:42:06;20.77;;;16.70;;
28958;SDS011;16066;0.000;0.000;2022-08-19T09:44:37;22.33;;;16.23;;
28958;SDS011;16066;0.000;0.000;2022-08-19T09:47:04;22.23;;;18.30;;
28958;SDS011;16066;0.000;0.000;2022-08-19T09:49:30;16.00;;;13.77;;
28958;SDS011;16066;0.000;0.000;2022-08-19T09:51:56;19.30;;;13.73;;
28958;SDS011;16066;0.000;0.000;2022-08-19T09:54:22;20.10;;;14.50;;
28958;SDS011;16066;0.000;0.000;2022-08-19T09:56:49;16.80;;;14.03;;
28958;SDS011;16066;0.000;0.000;2022-08-19T09:59:15;13.63;;;11.73;;
28958;SDS011;16066;0.000;0.000;2022-08-19T10:01:41;16.63;;;12.83;;
28958;SDS011;16066;0.000;0.000;2022-08-19T10:04:10;19.27;;;13.67;;
28958;SDS011;16066;0.000;0.000;2022-08-19T10:06:37;15.93;;;13.53;;
28958;SDS011;16066;0.000;0.000;2022-08-19T10:09:07;20.30;;;14.77;;
28958;SDS011;16066;0.000;0.000;2022-08-19T10:11:36;17.87;;;13.70;;
28958;SDS011;16066;0.000;0.000;2022-08-19T10:14:06;15.67;;;13.00;;
28958;SDS011;16066;0.000;0.000;2022-08-19T10:16:32;16.20;;;12.90;;
28958;SDS011;16066;0.000;0.000;2022-08-19T10:18:58;16.23;;;12.20;;
28958;SDS011;16066;0.000;0.000;2022-08-19T10:21:26;15.73;;;13.33;;
28958;SDS011;16066;0.000;0.000;2022-08-19T10:23:55;20.67;;;14.40;;
28958;SDS011;16066;0.000;0.000;2022-08-19T10:26:26;19.30;;;14.20;;
28958;SDS011;16066;0.000;0.000;2022-08-19T10:28:54;14.17;;;12.63;;
28958;SDS011;16066;0.000;0.000;2022-08-19T10:31:25;17.37;;;13.93;;
28958;SDS011;16066;0.000;0.000;2022-08-19T10:33:55;18.40;;;14.80;;
28958;SDS011;16066;0.000;0.000;2022-08-19T10:36:29;20.73;;;13.83;;
28958;SDS011;16066;0.000;0.000;2022-08-19T10:38:58;19.47;;;13.23;;
28958;SDS011;16066;0.000;0.000;2022-08-19T10:41:29;17.37;;;13.87;;
28958;SDS011;16066;0.000;0.000;2022-08-19T10:43:57;17.40;;;13.43;;
28958;SDS011;16066;0.000;0.000;2022-08-19T10:46:28;12.70;;;11.37;;
28958;SDS011;16066;0.000;0.000;2022-08-19T10:48:57;16.87;;;11.63;;
28958;SDS011;16066;0.000;0.000;2022-08-19T10:51:24;12.73;;;10.60;;
28958;SDS011;16066;0.000;0.000;2022-08-19T10:54:09;13.47;;;12.07;;
28958;SDS011;16066;0.000;0.000;2022-08-19T10:56:35;13.03;;;11.00;;
28958;SDS011;16066;0.000;0.000;2022-08-19T10:59:18;11.93;;;10.73;;
28958;SDS011;16066;0.000;0.000;2022-08-19T11:01:46;11.90;;;9.10;;
28958;SDS011;16066;0.000;0.000;2022-08-19T11:04:13;13.47;;;10.13;;
28958;SDS011;16066;0.000;0.000;2022-08-19T11:06:42;14.60;;;10.27;;
28958;SDS011;16066;0.000;0.000;2022-08-19T11:09:10;16.47;;;11.37;;
28958;SDS011;16066;0.000;0.000;2022-08-19T11:11:37;11.00;;;9.93;;
28958;SDS011;16066;0.000;0.000;2022-08-19T11:14:07;20.93;;;10.40;;
28958;SDS011;16066;0.000;0.000;2022-08-19T11:16:34;12.80;;;9.53;;
28958;SDS011;16066;0.000;0.000;2022-08-19T11:19:03;13.63;;;9.23;;
28958;SDS011;16066;0.000;0.000;2022-08-19T11:21:30;12.83;;;10.90;;
28958;SDS011;16066;0.000;0.000;2022-08-19T11:24:03;16.13;;;11.13;;
28958;SDS011;16066;0.000;0.000;2022-08-19T11:26:40;11.00;;;9.77;;
28958;SDS011;16066;0.000;0.000;2022-08-19T11:29:08;12.13;;;10.50;;
28958;SDS011;16066;0.000;0.000;2022-08-19T11:31:42;11.83;;;10.57;;
28958;SDS011;16066;0.000;0.000;2022-08-19T11:34:15;14.10;;;10.10;;
28958;SDS011;16066;0.000;0.000;2022-08-19T11:36:44;15.93;;;10.40;;
28958;SDS011;16066;0.000;0.000;2022-08-19T11:39:13;9.80;;;8.80;;
28958;SDS011;16066;0.000;0.000;2022-08-19T11:41:41;11.33;;;10.00;;
28958;SDS011;16066;0.000;0.000;2022-08-19T11:44:07;11.80;;;10.43;;
28958;SDS011;16066;0.000;0.000;2022-08-19T11:46:33;10.90;;;9.50;;
28958;SDS011;16066;0.000;0.000;2022-08-19T11:49:01;11.13;;;9.60;;
28958;SDS011;16066;0.000;0.000;2022-08-19T11:51:28;11.60;;;9.23;;
28958;SDS011;16066;0.000;0.000;2022-08-19T11:53:56;11.43;;;7.80;;
28958;SDS011;16066;0.000;0.000;2022-08-19T11:56:23;9.80;;;8.83;;
28958;SDS011;16066;0.000;0.000;2022-08-19T11:58:50;9.83;;;8.67;;
28958;SDS011;16066;0.000;0.000;2022-08-19T12:01:17;11.33;;;8.07;;
28958;SDS011;16066;0.000;0.000;2022-08-19T12:03:45;9.50;;;7.70;;
28958;SDS011;16066;0.000;0.000;2022-08-19T12:06:13;10.00;;;8.90;;
28958;SDS011;16066;0.000;0.000;2022-08-19T12:08:43;10.23;;;8.60;;
28958;SDS011;16066;0.000;0.000;2022-08-19T12:11:10;8.53;;;7.63;;
28958;SDS011;16066;0.000;0.000;2022-08-19T12:13:38;11.03;;;8.47;;
28958;SDS011;16066;0.000;0.000;2022-08-19T12:16:08;11.53;;;8.10;;
28958;SDS011;16066;0.000;0.000;2022-08-19T12:18:40;7.40;;;6.60;;
28958;SDS011;16066;0.000;0.000;2022-08-19T12:21:09;9.43;;;7.53;;
28958;SDS011;16066;0.000;0.000;2022-08-19T12:23:36;7.80;;;7.10;;
28958;SDS011;16066;0.000;0.000;2022-08-19T12:26:02;7.87;;;6.03;;
28958;SDS011;16066;0.000;0.000;2022-08-19T12:28:29;8.17;;;6.43;;
28958;SDS011;16066;0.000;0.000;2022-08-19T12:30:56;8.03;;;6.50;;
28958;SDS011;16066;0.000;0.000;2022-08-19T12:33:22;8.73;;;7.00;;
28958;SDS011;16066;0.000;0.000;2022-08-19T12:35:51;8.43;;;6.70;;
28958;SDS011;16066;0.000;0.000;2022-08-19T12:38:17;10.10;;;6.93;;
28958;SDS011;16066;0.000;0.000;2022-08-19T12:40:48;6.97;;;6.27;;
28958;SDS011;16066;0.000;0.000;2022-08-19T12:43:15;7.97;;;6.67;;
28958;SDS011;16066;0.000;0.000;2022-08-19T12:45:41;7.13;;;6.43;;
28958;SDS011;16066;0.000;0.000;2022-08-19T12:48:09;8.13;;;6.80;;
28958;SDS011;16066;0.000;0.000;2022-08-19T12:50:34;6.93;;;5.93;;
28958;SDS011;16066;0.000;0.000;2022-08-19T12:53:00;7.73;;;6.80;;
28958;SDS011;16066;0.000;0.000;2022-08-19T12:55:26;10.60;;;5.60;;
28958;SDS011;16066;0.000;0.000;2022-08-19T12:57:54;11.63;;;5.73;;
28958;SDS011;16066;0.000;0.000;2022-08-19T13:00:20;7.80;;;6.00;;
28958;SDS011;16066;0.000;0.000;2022-08-19T13:02:48;6.03;;;5.40;;
28958;SDS011;16066;0.000;0.000;2022-08-19T13:05:20;6.30;;;5.70;;
28958;SDS011;16066;0.000;0.000;2022-08-19T13:07:50;6.17;;;5.57;;
28958;SDS011;16066;0.000;0.000;2022-08-19T13:10:20;6.00;;;5.47;;
28958;SDS011;16066;0.000;0.000;2022-08-19T13:12:47;8.10;;;5.10;;
28958;SDS011;16066;0.000;0.000;2022-08-19T13:15:15;7.33;;;5.60;;
28958;SDS011;16066;0.000;0.000;2022-08-19T13:17:45;6.63;;;5.10;;
28958;SDS011;16066;0.000;0.000;2022-08-19T13:20:14;5.97;;;5.37;;
28958;SDS011;16066;0.000;0.000;2022-08-19T13:22:41;5.27;;;4.70;;
28958;SDS011;16066;0.000;0.000;2022-08-19T13:25:07;8.23;;;5.70;;
28958;SDS011;16066;0.000;0.000;2022-08-19T13:27:33;6.73;;;5.30;;
28958;SDS011;16066;0.000;0.000;2022-08-19T13:29:59;7.07;;;5.47;;
28958;SDS011;16066;0.000;0.000;2022-08-19T13:32:43;8.67;;;6.00;;
28958;SDS011;16066;0.000;0.000;2022-08-19T13:35:27;15.77;;;5.90;;
28958;SDS011;16066;0.000;0.000;2022-08-19T13:37:53;8.00;;;6.10;;
28958;SDS011;16066;0.000;0.000;2022-08-19T13:40:19;7.33;;;5.53;;
28958;SDS011;16066;0.000;0.000;2022-08-19T13:42:49;6.27;;;5.77;;
28958;SDS011;16066;0.000;0.000;2022-08-19T13:45:18;11.00;;;5.90;;
28958;SDS011;16066;0.000;0.000;2022-08-19T13:47:46;5.40;;;4.90;;
28958;SDS011;16066;0.000;0.000;2022-08-19T13:50:13;5.73;;;5.00;;
28958;SDS011;16066;0.000;0.000;2022-08-19T13:52:40;7.57;;;5.93;;
28958;SDS011;16066;0.000;0.000;2022-08-19T13:55:07;7.87;;;5.90;;
28958;SDS011;16066;0.000;0.000;2022-08-19T13:57:34;8.43;;;5.23;;
28958;SDS011;16066;0.000;0.000;2022-08-19T14:00:00;6.27;;;4.97;;
28958;SDS011;16066;0.000;0.000;2022-08-19T14:02:27;5.87;;;5.27;;
28958;SDS011;16066;0.000;0.000;2022-08-19T14:04:53;6.77;;;6.07;;
28958;SDS011;16066;0.000;0.000;2022-08-19T14:07:19;6.23;;;4.40;;
28958;SDS011;16066;0.000;0.000;2022-08-19T14:09:45;7.00;;;5.17;;
28958;SDS011;16066;0.000;0.000;2022-08-19T14:12:11;8.33;;;5.33;;
28958;SDS011;16066;0.000;0.000;2022-08-19T14:14:37;5.73;;;5.13;;
28958;SDS011;16066;0.000;0.000;2022-08-19T14:17:06;5.83;;;5.17;;
28958;SDS011;16066;0.000;0.000;2022-08-19T14:19:33;6.87;;;4.93;;
28958;SDS011;16066;0.000;0.000;2022-08-19T14:21:58;5.40;;;4.90;;
28958;SDS011;16066;0.000;0.000;2022-08-19T14:24:24;7.87;;;4.77;;
28958;SDS011;16066;0.000;0.000;2022-08-19T14:26:50;5.00;;;4.50;;
28958;SDS011;16066;0.000;0.000;2022-08-19T14:29:15;6.93;;;5.10;;
28958;SDS011;16066;0.000;0.000;2022-08-19T14:31:41;7.67;;;4.70;;
28958;SDS011;16066;0.000;0.000;2022-08-19T14:34:08;6.20;;;4.60;;
28958;SDS011;16066;0.000;0.000;2022-08-19T14:36:35;4.60;;;4.20;;
28958;SDS011;16066;0.000;0.000;2022-08-19T14:39:01;6.50;;;4.57;;
28958;SDS011;16066;0.000;0.000;2022-08-19T14:41:27;6.20;;;4.53;;
28958;SDS011;16066;0.000;0.000;2022-08-19T14:43:53;4.93;;;4.43;;
28958;SDS011;16066;0.000;0.000;2022-08-19T14:46:21;7.57;;;4.80;;
28958;SDS011;16066;0.000;0.000;2022-08-19T14:48:50;5.20;;;4.37;;
28958;SDS011;16066;0.000;0.000;2022-08-19T14:51:16;5.40;;;4.90;;
28958;SDS011;16066;0.000;0.000;2022-08-19T14:53:44;6.20;;;4.77;;
28958;SDS011;16066;0.000;0.000;2022-08-19T14:56:11;9.40;;;4.53;;
28958;SDS011;16066;0.000;0.000;2022-08-19T14:58:39;7.07;;;4.30;;
28958;SDS011;16066;0.000;0.000;2022-08-19T15:01:06;4.60;;;4.20;;
28958;SDS011;16066;0.000;0.000;2022-08-19T15:03:32;5.13;;;3.97;;
28958;SDS011;16066;0.000;0.000;2022-08-19T15:05:58;6.10;;;4.20;;
28958;SDS011;16066;0.000;0.000;2022-08-19T15:08:25;3.50;;;3.20;;